This is the latest recevied weather packets stored in our database for station/object KB0BDN-13. If no packets are shown the sender has not sent any weather packets the latest 10 day(s).
| Time | Temp. | Humidity | Pressure | Rain* | Wind** | Luminosity | Snow |
|---|---|---|---|---|---|---|---|
| 1777943822 | 0.56° C | 93% | - | 0 mm | - | - | - |
| 1777942922 | 0.56° C | 93% | - | 0 mm | - | - | - |
| 1777942022 | 0.56° C | 93% | - | 0.25 mm | - | - | - |
| 1777941122 | 0.56° C | 93% | - | 0.25 mm | - | - | - |
| 1777940222 | 0.56° C | 90% | - | 0.25 mm | - | - | - |
| 1777939322 | 2.22° C | 88% | - | 0.25 mm | - | - | - |
| 1777938422 | 3.33° C | 79% | - | 0 mm | - | - | - |
| 1777937527 | 5° C | 64% | - | 0 mm | - | - | - |
| 1777936627 | 5° C | 64% | - | 0 mm | - | - | - |
| 1777935727 | 5° C | 65% | - | 0 mm | - | - | - |
| 1777934827 | 5.56° C | 65% | - | 0 mm | - | - | - |
| 1777933927 | 5.56° C | 63% | - | 0 mm | - | - | - |
| 1777933027 | 5.56° C | 64% | - | 0 mm | - | - | - |
| 1777932127 | 5.56° C | 64% | - | 0 mm | - | - | - |
| 1777931227 | 5.56° C | 65% | - | 0 mm | - | - | - |
| 1777930327 | 5.56° C | 66% | - | 0 mm | - | - | - |
| 1777929427 | 6.11° C | 65% | - | 0 mm | - | - | - |
| 1777928527 | 6.11° C | 67% | - | 0 mm | - | - | - |
| 1777927627 | 6.67° C | 65% | - | 0 mm | - | - | - |
| 1777926727 | 6.67° C | 64% | - | 0 mm | - | - | - |
| 1777925827 | 6.67° C | 67% | - | 0 mm | - | - | - |
| 1777924927 | 6.67° C | 68% | - | 0 mm | - | - | - |
| 1777924027 | 6.67° C | 70% | - | 0 mm | - | - | - |
| 1777923127 | 6.67° C | 68% | - | 0 mm | - | - | - |
| 1777922227 | 6.11° C | 73% | - | 0 mm | - | - | - |
* Rain latest hour (hover to see other rain measurements)
** Current wind speed in m/s (hover to see current wind gust speed)